Terminal Aerodrome Forecast
Issued by NWS Grand Junction, CO

Home | Current Version | Previous Version | Text Only | Print | Product List | Glossary On
Versions: 1 2 3 4 5 6 7 8 9 10 11 12 13 14 15 16 17 18 19 20 21
000
FTUS45 KGJT 212003 AAC
TAFGJT
TAF AMD
KGJT 212003Z 2120/2218 31007KT P6SM VCSH BKN020 OVC030
     FM220000 31008KT P6SM VCSH OVC025
     FM220500 34006KT P6SM BKN035
     FM221100 VRB03KT P6SM SCT060
     FM221200 16004KT P6SM BKN090=

USA.gov is the U.S. government's official web portal to all federal, state and local government web resources and services.